createdAt,value
2023-02-18T00:01:41.278Z,92.90
2023-02-18T00:04:07.487Z,92.80
2023-02-18T00:06:33.623Z,92.90
2023-02-18T00:09:01.986Z,92.90
2023-02-18T00:11:27.101Z,93.00
2023-02-18T00:13:52.697Z,93.30
2023-02-18T00:16:17.742Z,93.60
2023-02-18T00:18:42.182Z,93.60
2023-02-18T00:21:10.497Z,93.60
2023-02-18T00:23:35.596Z,93.70
2023-02-18T00:26:04.377Z,93.60
2023-02-18T00:28:29.563Z,93.40
2023-02-18T00:30:53.962Z,93.50
2023-02-18T00:33:18.570Z,93.20
2023-02-18T00:35:42.903Z,93.30
2023-02-18T00:38:10.663Z,93.60
2023-02-18T00:40:38.872Z,93.50
2023-02-18T00:43:03.300Z,93.70
2023-02-18T00:45:29.567Z,93.70
2023-02-18T00:47:54.214Z,93.70
2023-02-18T00:50:18.758Z,93.40
2023-02-18T00:52:43.163Z,93.40
2023-02-18T00:55:09.357Z,93.30
2023-02-18T00:57:33.858Z,93.30
2023-02-18T00:59:58.226Z,93.30
2023-02-18T01:02:22.858Z,93.40
2023-02-18T01:04:47.208Z,93.20
2023-02-18T01:07:12.065Z,93.30
2023-02-18T01:09:36.401Z,93.00
2023-02-18T01:12:02.225Z,92.80
2023-02-18T01:14:26.529Z,92.70
2023-02-18T01:16:52.443Z,92.50
2023-02-18T01:19:16.833Z,92.60
2023-02-18T01:21:41.264Z,92.40
2023-02-18T01:24:06.595Z,92.60
2023-02-18T01:26:32.926Z,92.50
2023-02-18T01:28:59.180Z,92.50
2023-02-18T01:31:23.648Z,92.40
2023-02-18T01:33:48.831Z,92.70
2023-02-18T01:36:13.666Z,92.40
2023-02-18T01:38:38.652Z,92.50
2023-02-18T01:41:03.121Z,92.50
2023-02-18T01:43:28.069Z,92.40
2023-02-18T01:46:13.643Z,92.50
2023-02-18T01:48:42.250Z,92.50
2023-02-18T01:51:11.675Z,92.10
2023-02-18T01:53:40.645Z,92.10
2023-02-18T01:56:08.434Z,92.20
2023-02-18T01:58:33.827Z,92.00
2023-02-18T02:00:59.166Z,91.90
2023-02-18T02:03:25.599Z,92.00
2023-02-18T02:05:50.008Z,91.90
2023-02-18T02:08:14.676Z,91.80
2023-02-18T02:10:53.082Z,92.00
2023-02-18T02:13:25.171Z,92.00
2023-02-18T02:16:16.648Z,92.00
2023-02-18T02:18:57.367Z,92.30
2023-02-18T02:22:06.168Z,92.40
2023-02-18T02:24:55.087Z,92.70
2023-02-18T02:27:25.532Z,92.40
2023-02-18T02:30:32.544Z,92.50
2023-02-18T02:33:24.779Z,92.70
2023-02-18T02:35:57.511Z,92.80
2023-02-18T02:38:30.703Z,92.90
2023-02-18T02:41:03.961Z,92.80
2023-02-18T02:43:40.018Z,93.00
2023-02-18T02:46:08.342Z,92.90
2023-02-18T02:48:40.332Z,93.00
2023-02-18T02:51:11.960Z,92.90
2023-02-18T02:53:38.341Z,93.00
2023-02-18T02:56:02.702Z,92.90
2023-02-18T02:58:28.319Z,93.00
2023-02-18T03:01:07.766Z,93.00
2023-02-18T03:03:48.698Z,93.10
2023-02-18T03:06:33.352Z,93.20
2023-02-18T03:09:08.435Z,93.10
2023-02-18T03:11:38.822Z,93.20
2023-02-18T03:14:12.123Z,93.20
2023-02-18T03:16:46.081Z,93.10
2023-02-18T03:19:19.366Z,93.40
2023-02-18T03:21:49.114Z,93.20
2023-02-18T03:24:17.941Z,93.20
2023-02-18T03:26:46.788Z,93.40
2023-02-18T03:29:14.817Z,93.50
2023-02-18T03:31:43.964Z,93.60
2023-02-18T03:34:13.656Z,93.70
2023-02-18T03:36:41.613Z,93.90
2023-02-18T03:39:10.672Z,94.00
2023-02-18T03:41:35.769Z,94.10
2023-02-18T03:44:02.736Z,94.10
2023-02-18T03:46:27.596Z,94.00
2023-02-18T03:48:52.094Z,94.40
2023-02-18T03:51:19.674Z,94.30
2023-02-18T03:53:44.020Z,94.80
2023-02-18T03:56:11.604Z,94.60
2023-02-18T03:58:35.927Z,94.60
2023-02-18T04:01:00.395Z,95.00
2023-02-18T04:03:24.751Z,95.20
2023-02-18T04:05:49.276Z,95.10
2023-02-18T04:08:13.676Z,95.20
2023-02-18T04:10:38.041Z,95.10
2023-02-18T04:13:03.791Z,95.50
2023-02-18T04:15:30.509Z,95.50
2023-02-18T04:17:54.825Z,95.40
2023-02-18T04:20:19.511Z,95.50
2023-02-18T04:22:44.394Z,95.50
2023-02-18T04:25:09.601Z,95.50
2023-02-18T04:27:33.847Z,95.50
2023-02-18T04:29:59.776Z,95.40
2023-02-18T04:32:24.073Z,95.40
2023-02-18T04:34:48.404Z,95.50
2023-02-18T04:37:12.812Z,95.40
2023-02-18T04:39:37.161Z,95.40
2023-02-18T04:42:01.537Z,95.40
2023-02-18T04:44:25.860Z,95.40
2023-02-18T04:46:51.861Z,95.50
2023-02-18T04:49:16.202Z,95.50
2023-02-18T04:51:40.641Z,95.40
2023-02-18T04:54:05.291Z,95.60
2023-02-18T04:56:30.011Z,95.50
2023-02-18T04:58:54.366Z,95.30
2023-02-18T05:01:18.880Z,95.40
2023-02-18T05:03:46.076Z,95.30
2023-02-18T05:06:10.784Z,95.30
2023-02-18T05:08:35.341Z,95.20
2023-02-18T05:10:59.820Z,95.20
2023-02-18T05:13:24.192Z,95.40
2023-02-18T05:15:48.745Z,95.50
2023-02-18T05:18:13.367Z,95.50
2023-02-18T05:20:39.093Z,95.30
2023-02-18T05:23:03.505Z,95.50
2023-02-18T05:25:27.972Z,95.00
2023-02-18T05:27:52.375Z,95.00
2023-02-18T05:30:16.998Z,95.00
2023-02-18T05:32:41.419Z,95.00
2023-02-18T05:35:06.731Z,95.10
2023-02-18T05:37:32.644Z,95.20
2023-02-18T05:39:57.175Z,95.20
2023-02-18T05:42:23.444Z,95.30
2023-02-18T05:44:47.979Z,95.30
2023-02-18T05:47:13.696Z,95.60
2023-02-18T05:49:38.492Z,95.80
2023-02-18T05:52:03.251Z,95.80
2023-02-18T05:54:29.768Z,95.80
2023-02-18T05:56:54.749Z,96.00
2023-02-18T05:59:19.643Z,95.80
2023-02-18T06:01:44.131Z,96.00
2023-02-18T06:04:08.561Z,96.20
2023-02-18T06:06:33.888Z,95.50
2023-02-18T06:08:59.258Z,95.40
2023-02-18T06:11:25.461Z,95.40
2023-02-18T06:13:49.759Z,95.30
2023-02-18T06:16:14.259Z,95.20
2023-02-18T06:18:38.693Z,94.80
2023-02-18T06:21:03.199Z,95.00
2023-02-18T06:23:30.106Z,94.60
2023-02-18T06:25:54.713Z,94.60
2023-02-18T06:28:20.597Z,94.70
2023-02-18T06:30:45.944Z,94.30
2023-02-18T06:33:10.260Z,94.50
2023-02-18T06:35:35.121Z,94.40
2023-02-18T06:37:59.444Z,94.10
2023-02-18T06:40:23.875Z,94.20
2023-02-18T06:42:48.173Z,94.20
2023-02-18T06:45:13.937Z,94.30
2023-02-18T06:47:38.490Z,94.20
2023-02-18T06:50:02.893Z,94.50
2023-02-18T06:52:28.069Z,94.60
2023-02-18T06:54:52.589Z,94.40
2023-02-18T06:57:16.947Z,94.00
2023-02-18T06:59:41.394Z,94.00
2023-02-18T07:02:07.157Z,93.80
2023-02-18T07:04:33.022Z,93.60
2023-02-18T07:06:57.537Z,93.60
2023-02-18T07:09:22.005Z,93.50
2023-02-18T07:11:46.271Z,93.20
2023-02-18T07:14:10.897Z,93.20
2023-02-18T07:16:35.249Z,93.00
2023-02-18T07:19:01.057Z,93.10
2023-02-18T07:21:25.651Z,92.90
2023-02-18T07:23:50.108Z,92.90
2023-02-18T07:26:15.585Z,93.10
2023-02-18T07:28:40.510Z,93.20
2023-02-18T07:31:05.368Z,93.10
2023-02-18T07:33:30.001Z,93.10
2023-02-18T07:36:00.479Z,92.90
2023-02-18T07:38:25.770Z,92.80
2023-02-18T07:40:50.167Z,92.70
2023-02-18T07:43:14.526Z,92.60
2023-02-18T07:45:39.958Z,92.70
2023-02-18T07:48:04.507Z,92.90
2023-02-18T07:50:29.052Z,92.90
2023-02-18T07:52:54.874Z,92.70
2023-02-18T07:55:19.407Z,92.40
2023-02-18T08:00:13.788Z,92.10
2023-02-18T08:02:38.180Z,92.10
2023-02-18T08:05:02.500Z,92.00
2023-02-18T08:07:27.199Z,92.10
2023-02-18T08:09:51.727Z,92.10
2023-02-18T08:12:16.082Z,92.10
2023-02-18T08:14:42.488Z,92.20
2023-02-18T08:17:08.218Z,92.20
2023-02-18T08:19:32.885Z,92.20
2023-02-18T08:21:57.232Z,92.20
2023-02-18T08:24:22.564Z,92.10
2023-02-18T08:26:59.855Z,92.00
2023-02-18T08:29:25.427Z,92.20
2023-02-18T08:31:49.889Z,92.00
2023-02-18T08:34:15.738Z,92.00
2023-02-18T08:36:40.005Z,92.00
2023-02-18T08:39:04.749Z,92.00
2023-02-18T08:41:29.047Z,91.80
2023-02-18T08:43:53.475Z,92.30
2023-02-18T08:46:33.401Z,92.30
2023-02-18T08:49:01.064Z,92.00
2023-02-18T08:51:26.955Z,92.10
2023-02-18T08:53:51.446Z,92.10
2023-02-18T08:56:17.239Z,92.00
2023-02-18T08:58:42.064Z,92.10
2023-02-18T09:01:08.903Z,92.20
2023-02-18T09:03:33.492Z,92.20
2023-02-18T09:05:58.702Z,92.00
2023-02-18T09:08:24.540Z,92.20
2023-02-18T09:10:50.312Z,92.20
2023-02-18T09:13:14.662Z,92.10
2023-02-18T09:15:39.115Z,92.20
2023-02-18T09:18:03.487Z,92.10
2023-02-18T09:20:28.842Z,92.30
2023-02-18T09:22:53.290Z,92.30
2023-02-18T09:25:20.721Z,92.20
2023-02-18T09:27:45.043Z,92.30
2023-02-18T09:30:10.553Z,92.20
2023-02-18T09:32:35.574Z,92.30
2023-02-18T09:35:00.157Z,92.10
2023-02-18T09:37:24.401Z,92.10
2023-02-18T09:39:49.660Z,92.20
2023-02-18T09:42:19.769Z,92.30
2023-02-18T09:44:46.801Z,92.40
2023-02-18T09:47:15.070Z,92.60
2023-02-18T09:49:42.529Z,92.40
2023-02-18T09:52:13.375Z,92.50
2023-02-18T09:54:37.838Z,92.40
2023-02-18T09:57:03.073Z,92.50
2023-02-18T09:59:29.867Z,92.50
2023-02-18T10:01:57.188Z,92.20
2023-02-18T10:04:24.301Z,92.10
2023-02-18T10:06:50.110Z,92.20
2023-02-18T10:09:21.963Z,92.10
2023-02-18T10:11:49.760Z,92.10
2023-02-18T10:14:16.212Z,92.10
2023-02-18T10:16:42.697Z,92.00
2023-02-18T10:19:17.491Z,91.90
2023-02-18T10:21:42.194Z,92.10
2023-02-18T10:24:14.304Z,91.90
2023-02-18T10:26:40.580Z,92.00
2023-02-18T10:29:05.310Z,92.00
2023-02-18T10:31:35.394Z,91.70
2023-02-18T10:34:08.397Z,91.70
2023-02-18T10:36:39.250Z,91.80
2023-02-18T10:39:45.647Z,91.70
2023-02-18T10:42:22.259Z,91.80
2023-02-18T10:44:57.711Z,91.70
2023-02-18T10:47:34.522Z,91.50
2023-02-18T10:50:03.523Z,91.40
2023-02-18T10:52:31.653Z,91.20
2023-02-18T10:55:04.513Z,91.10
2023-02-18T10:57:29.311Z,91.30
2023-02-18T11:00:00.179Z,91.10
2023-02-18T11:02:30.985Z,90.90
2023-02-18T11:05:02.026Z,90.80
2023-02-18T11:07:34.256Z,91.00
2023-02-18T11:10:18.170Z,90.90
2023-02-18T11:12:47.618Z,90.90
2023-02-18T11:15:20.874Z,90.90
2023-02-18T11:17:47.066Z,90.90
2023-02-18T11:20:31.367Z,91.00
2023-02-18T11:23:00.067Z,90.90
2023-02-18T11:25:26.773Z,90.90
2023-02-18T11:27:53.785Z,90.90
2023-02-18T11:30:24.072Z,90.70
2023-02-18T11:32:50.899Z,90.80
2023-02-18T11:35:33.315Z,90.80
2023-02-18T11:38:00.020Z,90.80
2023-02-18T11:40:27.662Z,90.90
2023-02-18T11:42:52.149Z,91.20
2023-02-18T11:45:29.546Z,90.80
2023-02-18T11:48:01.373Z,91.00
2023-02-18T11:50:27.545Z,90.80
2023-02-18T11:52:53.997Z,90.90
2023-02-18T11:55:21.055Z,90.80
2023-02-18T11:57:49.315Z,90.80
2023-02-18T12:00:20.941Z,91.00
2023-02-18T12:02:45.564Z,91.00
2023-02-18T12:05:15.946Z,91.10
2023-02-18T12:07:45.966Z,91.10
2023-02-18T12:10:15.567Z,91.10
2023-02-18T12:12:47.090Z,91.20
2023-02-18T12:15:17.630Z,91.10
2023-02-18T12:17:54.501Z,91.10
2023-02-18T12:20:31.026Z,91.10
2023-02-18T12:23:04.289Z,91.10
2023-02-18T12:25:40.149Z,91.10
2023-02-18T12:28:26.300Z,91.10
2023-02-18T12:31:12.418Z,91.20
2023-02-18T12:33:45.739Z,90.80
2023-02-18T12:36:20.867Z,90.70
2023-02-18T12:39:17.987Z,90.70
2023-02-18T12:42:01.453Z,90.60
2023-02-18T12:44:45.401Z,90.70
2023-02-18T12:47:31.695Z,90.70
2023-02-18T12:50:26.371Z,90.70
2023-02-18T12:53:03.769Z,90.70
2023-02-18T12:55:40.334Z,91.30
2023-02-18T12:58:17.842Z,91.00
2023-02-18T13:01:12.208Z,90.80
2023-02-18T13:04:04.785Z,91.10
2023-02-18T13:06:43.775Z,91.20
2023-02-18T13:09:18.862Z,91.10
2023-02-18T13:11:51.734Z,91.20
2023-02-18T13:14:22.247Z,91.00
2023-02-18T13:16:52.864Z,91.60
2023-02-18T13:19:23.960Z,90.80
2023-02-18T13:21:52.405Z,91.00
2023-02-18T13:24:24.306Z,90.90
2023-02-18T13:26:52.422Z,90.90
2023-02-18T13:29:28.158Z,90.60
2023-02-18T13:32:03.408Z,90.60
2023-02-18T13:34:33.783Z,90.30
2023-02-18T13:37:08.051Z,90.20
2023-02-18T13:39:33.764Z,90.30
2023-02-18T13:42:25.810Z,90.30
2023-02-18T13:45:31.454Z,90.40
2023-02-18T13:47:56.913Z,90.40
2023-02-18T13:50:32.226Z,90.20
2023-02-18T13:53:15.005Z,90.30
2023-02-18T13:55:43.473Z,90.20
2023-02-18T13:58:17.607Z,90.10
2023-02-18T14:00:50.984Z,90.40
2023-02-18T14:03:33.450Z,90.30
2023-02-18T14:05:58.420Z,90.30
2023-02-18T14:08:34.689Z,90.30
2023-02-18T14:11:34.000Z,90.30
2023-02-18T14:14:17.873Z,90.10
2023-02-18T14:17:30.960Z,90.10
2023-02-18T14:19:56.336Z,89.80
2023-02-18T14:22:29.982Z,90.10
2023-02-18T14:25:02.274Z,90.20
2023-02-18T14:27:27.674Z,90.40
2023-02-18T14:29:54.409Z,90.40
2023-02-18T14:32:22.170Z,90.10
2023-02-18T14:35:14.441Z,90.10
2023-02-18T14:38:06.622Z,90.10
2023-02-18T14:40:59.084Z,90.00
2023-02-18T14:43:41.213Z,89.90
2023-02-18T14:46:18.111Z,89.70
2023-02-18T14:49:12.681Z,89.80
2023-02-18T14:51:37.742Z,89.80
2023-02-18T14:54:06.899Z,90.00
2023-02-18T14:56:31.488Z,90.10
2023-02-18T14:59:01.083Z,90.00
2023-02-18T15:01:30.545Z,90.10
2023-02-18T15:03:57.586Z,90.50
2023-02-18T15:06:27.452Z,90.30
2023-02-18T15:08:53.041Z,90.30
2023-02-18T15:11:18.450Z,90.60
2023-02-18T15:13:45.361Z,90.30
2023-02-18T15:16:15.156Z,90.40
2023-02-18T15:18:42.439Z,90.70
2023-02-18T15:21:10.395Z,90.90
2023-02-18T15:23:38.308Z,90.90
2023-02-18T15:26:02.888Z,90.90
2023-02-18T15:28:30.099Z,90.90
2023-02-18T15:30:54.836Z,90.90
2023-02-18T15:33:24.034Z,91.00
2023-02-18T15:35:49.004Z,91.00
2023-02-18T15:38:18.654Z,91.10
2023-02-18T15:40:43.496Z,91.20
2023-02-18T15:43:08.946Z,91.20
2023-02-18T15:45:36.375Z,91.40
2023-02-18T15:48:02.000Z,91.60
2023-02-18T15:50:28.614Z,91.60
2023-02-18T15:52:54.727Z,91.80
2023-02-18T15:55:28.341Z,91.80
2023-02-18T15:57:54.530Z,92.00
2023-02-18T16:00:22.278Z,91.90
2023-02-18T16:02:55.893Z,91.80
2023-02-18T16:05:32.235Z,92.00
2023-02-18T16:08:01.941Z,92.10
2023-02-18T16:10:45.045Z,92.20
2023-02-18T16:13:09.597Z,92.20
2023-02-18T16:15:40.536Z,92.20
2023-02-18T16:18:07.148Z,92.60
2023-02-18T16:20:36.067Z,92.40
2023-02-18T16:23:11.711Z,92.30
2023-02-18T16:25:44.062Z,92.40
2023-02-18T16:28:16.444Z,92.30
2023-02-18T16:30:42.145Z,92.10
2023-02-18T16:33:06.561Z,92.20
2023-02-18T16:35:43.943Z,92.30
2023-02-18T16:38:18.758Z,92.20
2023-02-18T16:40:44.724Z,92.20
2023-02-18T16:43:15.739Z,92.30
2023-02-18T16:45:43.931Z,92.60
2023-02-18T16:48:12.805Z,92.60
2023-02-18T16:50:37.285Z,92.80
2023-02-18T16:53:02.654Z,92.90
2023-02-18T16:55:29.744Z,92.90
2023-02-18T16:57:56.182Z,92.70
2023-02-18T17:00:21.288Z,92.90
2023-02-18T17:02:47.159Z,92.90
2023-02-18T17:05:26.420Z,92.90
2023-02-18T17:07:51.731Z,92.90
2023-02-18T17:10:16.717Z,93.00
2023-02-18T17:12:43.678Z,93.10
2023-02-18T17:15:15.641Z,93.10
2023-02-18T17:17:40.034Z,93.30
2023-02-18T17:20:04.793Z,93.30
2023-02-18T17:22:29.501Z,93.40
2023-02-18T17:24:53.896Z,95.30
2023-02-18T17:27:21.161Z,94.10
2023-02-18T17:29:45.660Z,93.20
2023-02-18T17:32:14.481Z,93.40
2023-02-18T17:34:41.103Z,93.30
2023-02-18T17:37:05.669Z,93.50
2023-02-18T17:39:31.418Z,93.60
2023-02-18T17:41:55.947Z,94.00
2023-02-18T17:44:22.085Z,94.10
2023-02-18T17:46:46.812Z,94.10
2023-02-18T17:49:12.615Z,94.10
2023-02-18T17:51:38.496Z,94.30
2023-02-18T17:54:02.968Z,94.60
2023-02-18T17:56:27.549Z,94.70
2023-02-18T17:58:51.977Z,94.80
2023-02-18T18:01:17.242Z,94.90
2023-02-18T18:03:41.743Z,94.90
2023-02-18T18:06:15.525Z,95.00
2023-02-18T18:08:40.113Z,95.20
2023-02-18T18:11:06.002Z,95.30
2023-02-18T18:13:32.424Z,95.30
2023-02-18T18:15:58.142Z,95.20
2023-02-18T18:18:22.709Z,95.40
2023-02-18T18:20:49.790Z,95.40
2023-02-18T18:23:18.176Z,95.30
2023-02-18T18:25:45.483Z,95.30
2023-02-18T18:28:10.540Z,95.40
2023-02-18T18:30:36.887Z,95.50
2023-02-18T18:33:01.377Z,95.50
2023-02-18T18:35:28.699Z,95.60
2023-02-18T18:37:53.992Z,95.70
2023-02-18T18:40:21.312Z,95.70
2023-02-18T18:42:45.664Z,95.90
2023-02-18T18:45:19.665Z,95.60
2023-02-18T18:47:44.274Z,95.50
2023-02-18T18:50:09.556Z,95.80
2023-02-18T18:52:34.218Z,96.00
2023-02-18T18:54:58.560Z,96.10
2023-02-18T18:57:24.324Z,96.10
2023-02-18T18:59:48.641Z,96.10
2023-02-18T19:02:16.922Z,96.00
2023-02-18T19:04:41.345Z,96.10
2023-02-18T19:07:05.788Z,96.20
2023-02-18T19:09:30.223Z,96.40
2023-02-18T19:11:54.683Z,96.40
2023-02-18T19:14:22.086Z,96.50
2023-02-18T19:16:46.823Z,96.40
2023-02-18T19:19:12.504Z,96.50
2023-02-18T19:21:37.345Z,96.30
2023-02-18T19:24:01.756Z,96.40
2023-02-18T19:26:26.283Z,96.60
2023-02-18T19:28:50.630Z,96.70
2023-02-18T19:31:16.724Z,96.70
2023-02-18T19:33:41.269Z,97.00
2023-02-18T19:36:08.851Z,96.70
2023-02-18T19:38:33.821Z,96.80
2023-02-18T19:40:58.373Z,96.90
2023-02-18T19:43:22.765Z,96.80
2023-02-18T19:45:48.892Z,96.90
2023-02-18T19:48:15.918Z,96.90
2023-02-18T19:50:42.261Z,96.80
2023-02-18T19:53:06.684Z,96.80
2023-02-18T19:55:31.200Z,97.10
2023-02-18T19:57:55.728Z,97.10
2023-02-18T20:00:22.342Z,97.20
2023-02-18T20:02:47.341Z,97.10
2023-02-18T20:05:14.453Z,96.90
2023-02-18T20:07:39.026Z,97.10
2023-02-18T20:10:03.871Z,97.20
2023-02-18T20:12:28.501Z,97.10
2023-02-18T20:14:53.105Z,97.00
2023-02-18T20:17:18.283Z,97.00
2023-02-18T20:19:42.687Z,97.20
2023-02-18T20:22:10.321Z,97.00
2023-02-18T20:24:35.183Z,97.20
2023-02-18T20:27:02.570Z,97.20
2023-02-18T20:29:29.039Z,97.20
2023-02-18T20:31:54.440Z,97.10
2023-02-18T20:34:19.334Z,97.00
2023-02-18T20:36:45.437Z,97.10
2023-02-18T20:39:16.187Z,97.20
2023-02-18T20:41:41.274Z,97.00
2023-02-18T20:44:05.905Z,96.90
2023-02-18T20:46:30.752Z,97.00
2023-02-18T20:48:55.661Z,97.10
2023-02-18T20:51:22.271Z,97.20
2023-02-18T20:53:47.963Z,97.10
2023-02-18T20:56:14.061Z,97.00
2023-02-18T20:58:38.627Z,97.20
2023-02-18T21:01:04.827Z,97.20
2023-02-18T21:03:29.776Z,97.10
2023-02-18T21:06:01.072Z,97.10
2023-02-18T21:08:26.363Z,97.00
2023-02-18T21:10:52.752Z,96.70
2023-02-18T21:13:19.107Z,96.70
2023-02-18T21:15:43.562Z,96.80
2023-02-18T21:18:08.034Z,97.00
2023-02-18T21:20:32.683Z,97.30
2023-02-18T21:22:57.286Z,97.20
2023-02-18T21:25:22.092Z,97.50
2023-02-18T21:27:46.615Z,97.50
2023-02-18T21:30:13.504Z,97.70
2023-02-18T21:32:38.033Z,98.10
2023-02-18T21:35:02.424Z,97.90
2023-02-18T21:37:27.056Z,98.20
2023-02-18T21:39:51.426Z,98.10
2023-02-18T21:42:15.839Z,98.40
2023-02-18T21:44:42.588Z,98.00
2023-02-18T21:47:08.823Z,98.30
2023-02-18T21:49:33.286Z,98.20
2023-02-18T21:51:58.181Z,98.30
2023-02-18T21:54:24.657Z,98.40
2023-02-18T21:56:49.511Z,98.30
2023-02-18T21:59:13.939Z,98.40
2023-02-18T22:01:38.430Z,98.20
2023-02-18T22:04:04.439Z,98.10
2023-02-18T22:06:28.835Z,98.00
2023-02-18T22:08:53.264Z,98.00
2023-02-18T22:11:18.864Z,98.20
2023-02-18T22:13:45.412Z,98.30
2023-02-18T22:16:09.794Z,98.30
2023-02-18T22:18:34.914Z,98.40
2023-02-18T22:21:01.012Z,98.50
2023-02-18T22:23:25.633Z,98.40
2023-02-18T22:25:52.212Z,98.40
2023-02-18T22:28:19.500Z,98.50
2023-02-18T22:30:43.967Z,98.70
2023-02-18T22:33:08.464Z,98.60
2023-02-18T22:35:33.714Z,98.50
2023-02-18T22:37:59.849Z,98.50
2023-02-18T22:40:24.498Z,98.20
2023-02-18T22:42:48.853Z,98.30
2023-02-18T22:45:13.318Z,98.30
2023-02-18T22:47:37.661Z,98.60
2023-02-18T22:50:02.059Z,98.80
2023-02-18T22:52:27.564Z,98.80
2023-02-18T22:54:54.999Z,98.80
2023-02-18T22:57:19.646Z,99.10
2023-02-18T22:59:44.024Z,98.70
2023-02-18T23:02:08.407Z,98.80
2023-02-18T23:04:33.059Z,98.70
2023-02-18T23:06:57.479Z,98.70
2023-02-18T23:09:24.356Z,98.60
2023-02-18T23:11:53.032Z,98.50
2023-02-18T23:14:21.508Z,98.20
2023-02-18T23:17:04.383Z,98.10
2023-02-18T23:19:31.794Z,97.90
2023-02-18T23:21:56.366Z,97.90
2023-02-18T23:24:22.806Z,97.70
2023-02-18T23:26:47.794Z,97.80
2023-02-18T23:29:13.817Z,97.70
2023-02-18T23:31:38.724Z,97.90
2023-02-18T23:34:03.335Z,97.80
2023-02-18T23:36:29.778Z,97.90
2023-02-18T23:38:56.085Z,97.80
2023-02-18T23:41:21.235Z,97.80
2023-02-18T23:43:45.922Z,97.70
2023-02-18T23:46:12.006Z,97.90
2023-02-18T23:48:39.529Z,98.00
2023-02-18T23:51:07.329Z,97.70
2023-02-18T23:53:33.689Z,97.80
2023-02-18T23:56:07.502Z,97.80
2023-02-18T23:58:32.044Z,97.80
